Time;durP1;ratioP1;P1;durP2;ratioP2;P2;SDS_P1;SDS_P2;PMS_P1;PMS_P2;Temp;Humidity;BMP_temperature;BMP_pressure;BME280_temperature;BME280_humidity;BME280_pressure;Samples;Min_cycle;Max_cycle;Signal;HPM_P1;HPM_P2
2023/07/09 00:01:56;;;;;;;6.82;4.05;;;27.20;81.50;;;;;;4159148;28;20034;-60
2023/07/09 00:03:56;;;;;;;6.72;4.28;;;27.10;81.20;;;;;;4159025;28;20095;-60
2023/07/09 00:05:57;;;;;;;6.15;4.07;;;27.10;80.90;;;;;;4159626;28;20046;-60
2023/07/09 00:08:00;;;;;;;5.45;3.67;;;27.10;81.00;;;;;;4160111;28;20041;-60
2023/07/09 00:10:01;;;;;;;5.35;4.10;;;27.00;81.00;;;;;;4157488;28;20530;-60
2023/07/09 00:12:02;;;;;;;6.70;3.80;;;27.00;81.90;;;;;;4153579;28;20032;-61
2023/07/09 00:14:05;;;;;;;8.23;4.68;;;27.00;81.90;;;;;;4160278;28;20095;-60
2023/07/09 00:16:14;;;;;;;6.13;3.50;;;27.00;82.00;;;;;;4153587;28;20038;-60
2023/07/09 00:18:14;;;;;;;5.70;3.60;;;27.00;81.60;;;;;;4154903;28;20072;-60
2023/07/09 00:20:17;;;;;;;6.43;4.13;;;26.90;81.60;;;;;;4155356;28;20030;-60
2023/07/09 00:22:20;;;;;;;5.78;3.88;;;26.90;82.50;;;;;;4160010;28;20033;-60
2023/07/09 00:24:21;;;;;;;6.28;3.75;;;26.90;82.00;;;;;;4160402;28;20057;-60
2023/07/09 00:26:23;;;;;;;5.65;3.92;;;26.90;82.10;;;;;;4159539;28;20037;-59
2023/07/09 00:28:24;;;;;;;6.18;4.13;;;26.90;82.40;;;;;;4159688;28;20030;-60
2023/07/09 00:30:24;;;;;;;5.82;3.90;;;26.90;82.00;;;;;;4157186;28;20099;-60
2023/07/09 00:32:26;;;;;;;5.10;3.50;;;26.90;82.20;;;;;;4160535;28;20033;-59
2023/07/09 00:34:26;;;;;;;5.45;3.67;;;26.80;82.10;;;;;;4165878;28;20041;-59
2023/07/09 00:36:31;;;;;;;6.47;4.05;;;26.80;82.40;;;;;;4175769;28;20492;-59
2023/07/09 00:38:38;;;;;;;5.60;3.65;;;26.90;82.90;;;;;;4172476;28;20049;-62
2023/07/09 00:40:59;;;;;;;4.78;3.38;;;26.90;83.00;;;;;;4164235;28;20057;-60
2023/07/09 00:43:00;;;;;;;6.57;3.95;;;26.90;82.90;;;;;;4172907;28;20033;-59
2023/07/09 00:45:00;;;;;;;6.15;4.03;;;26.90;83.50;;;;;;4174928;28;20044;-60
2023/07/09 00:47:17;;;;;;;6.63;3.97;;;26.90;83.00;;;;;;4175235;28;20124;-59
2023/07/09 00:49:30;;;;;;;5.18;3.67;;;26.90;83.10;;;;;;4172928;28;20036;-60
2023/07/09 00:51:34;;;;;;;5.65;3.50;;;27.00;83.00;;;;;;4178014;28;20033;-60
2023/07/09 00:53:34;;;;;;;5.30;3.38;;;26.90;83.10;;;;;;4179626;28;20095;-60
2023/07/09 00:55:42;;;;;;;5.63;4.07;;;27.00;83.50;;;;;;4178870;28;20037;-60
2023/07/09 00:57:55;;;;;;;6.28;3.65;;;27.00;83.10;;;;;;4179915;28;20482;-59
2023/07/09 01:00:12;;;;;;;6.32;3.83;;;26.90;83.30;;;;;;4178639;28;20037;-59
2023/07/09 01:02:14;;;;;;;6.50;4.13;;;26.90;83.10;;;;;;4174111;28;20029;-60
2023/07/09 01:04:17;;;;;;;5.97;3.80;;;26.90;83.90;;;;;;4174061;28;20033;-59
2023/07/09 01:06:30;;;;;;;4.60;3.22;;;26.90;83.70;;;;;;4178635;28;20033;-60
2023/07/09 01:08:32;;;;;;;6.28;3.63;;;26.90;85.20;;;;;;4178805;28;20121;-60
2023/07/09 01:10:32;;;;;;;6.57;3.85;;;26.90;85.50;;;;;;4173372;28;20035;-60
2023/07/09 01:12:33;;;;;;;6.18;3.45;;;26.90;84.90;;;;;;4179594;28;20506;-61
2023/07/09 01:14:35;;;;;;;5.70;3.47;;;26.90;84.70;;;;;;4179614;28;20053;-60
2023/07/09 01:16:39;;;;;;;6.13;3.95;;;26.90;84.60;;;;;;4175048;28;20041;-60
2023/07/09 01:18:39;;;;;;;5.80;3.70;;;26.90;84.90;;;;;;4178219;28;20090;-60
2023/07/09 01:20:40;;;;;;;4.90;3.70;;;26.80;84.80;;;;;;4177752;28;20041;-61
2023/07/09 01:22:41;;;;;;;4.97;3.60;;;26.80;85.50;;;;;;4178491;28;20037;-60
2023/07/09 01:25:01;;;;;;;6.25;3.65;;;26.80;85.70;;;;;;4179265;28;20021;-60
2023/07/09 01:27:02;;;;;;;4.82;3.17;;;26.80;85.20;;;;;;4174973;28;20025;-63
2023/07/09 01:29:03;;;;;;;4.00;3.10;;;26.80;85.50;;;;;;4176059;28;20087;-60
2023/07/09 01:31:04;;;;;;;6.82;3.40;;;26.80;86.00;;;;;;4175262;28;20028;-60
2023/07/09 01:33:06;;;;;;;5.82;3.70;;;26.80;85.50;;;;;;4178634;28;20041;-60
2023/07/09 01:35:07;;;;;;;6.45;3.58;;;26.70;86.10;;;;;;4158958;28;20033;-65
2023/07/09 01:37:07;;;;;;;6.82;3.92;;;26.70;86.40;;;;;;4178452;28;20029;-60
2023/07/09 01:39:08;;;;;;;5.32;3.35;;;26.70;86.10;;;;;;4177662;28;20395;-60
2023/07/09 01:41:13;;;;;;;6.30;4.25;;;26.70;86.40;;;;;;4176308;28;20491;-60
2023/07/09 01:43:14;;;;;;;6.35;3.65;;;26.60;86.20;;;;;;4161182;28;20065;-60
2023/07/09 01:45:15;;;;;;;5.70;3.28;;;26.70;85.90;;;;;;4176434;28;20041;-60
2023/07/09 01:47:17;;;;;;;6.10;3.58;;;26.60;86.00;;;;;;4176788;28;20588;-60
2023/07/09 01:49:18;;;;;;;5.22;3.70;;;26.60;86.40;;;;;;4174823;28;20064;-60
2023/07/09 01:51:18;;;;;;;4.55;3.10;;;26.60;86.60;;;;;;4174697;28;20032;-60
2023/07/09 01:53:25;;;;;;;4.88;3.22;;;26.60;87.10;;;;;;4176609;28;20056;-60
2023/07/09 01:55:26;;;;;;;5.80;3.88;;;26.50;87.70;;;;;;4177753;28;20040;-60
2023/07/09 01:57:39;;;;;;;5.22;3.40;;;26.50;87.30;;;;;;4178703;28;20472;-60
2023/07/09 01:59:41;;;;;;;5.40;3.72;;;26.50;87.50;;;;;;4164680;28;20037;-60
2023/07/09 02:01:42;;;;;;;5.35;3.70;;;26.50;87.70;;;;;;4149675;28;20038;-60
2023/07/09 02:03:43;;;;;;;5.70;3.63;;;26.50;88.00;;;;;;4172095;28;20527;-60
2023/07/09 02:05:43;;;;;;;5.30;3.28;;;26.40;87.50;;;;;;4168733;28;20028;-60
2023/07/09 02:07:44;;;;;;;5.63;3.90;;;26.40;87.90;;;;;;4170141;28;20090;-60
2023/07/09 02:09:45;;;;;;;6.70;3.85;;;26.30;87.80;;;;;;4170616;28;20037;-60
2023/07/09 02:11:46;;;;;;;5.78;3.67;;;26.30;88.20;;;;;;4150774;28;20029;-60
2023/07/09 02:13:46;;;;;;;6.38;3.88;;;26.20;88.60;;;;;;4173155;28;20034;-60
2023/07/09 02:15:47;;;;;;;4.72;3.67;;;26.20;88.50;;;;;;4171443;28;20090;-60
2023/07/09 02:17:47;;;;;;;7.07;3.92;;;26.10;88.70;;;;;;4166340;28;20033;-60
2023/07/09 02:19:48;;;;;;;5.75;3.70;;;26.10;88.90;;;;;;4169776;28;20035;-60
2023/07/09 02:21:48;;;;;;;4.63;3.50;;;26.10;88.50;;;;;;4167576;28;20026;-60
2023/07/09 02:23:50;;;;;;;6.13;3.75;;;26.00;89.00;;;;;;4168624;28;20501;-60
2023/07/09 02:25:50;;;;;;;5.07;3.40;;;26.00;89.10;;;;;;4174976;28;20036;-60
2023/07/09 02:27:51;;;;;;;6.00;3.83;;;25.90;89.60;;;;;;4171161;28;20033;-60
2023/07/09 02:29:51;;;;;;;6.05;3.97;;;25.90;89.60;;;;;;4170208;28;20038;-60
2023/07/09 02:31:55;;;;;;;6.60;3.97;;;25.90;89.40;;;;;;4170290;28;20365;-60
2023/07/09 02:33:56;;;;;;;6.35;3.88;;;25.80;89.80;;;;;;4167275;28;20037;-60
2023/07/09 02:35:57;;;;;;;7.43;4.30;;;25.80;89.80;;;;;;4184059;28;20353;-59
2023/07/09 02:37:57;;;;;;;7.57;4.13;;;25.80;90.00;;;;;;4188354;28;20036;-59
2023/07/09 02:39:59;;;;;;;6.30;3.90;;;25.80;90.20;;;;;;4184633;28;20021;-59
2023/07/09 02:41:59;;;;;;;8.10;3.97;;;25.70;90.30;;;;;;4186260;28;20040;-59
2023/07/09 02:44:00;;;;;;;7.72;3.80;;;25.70;90.30;;;;;;4183772;28;20388;-60
2023/07/09 02:46:00;;;;;;;5.97;4.18;;;25.70;90.20;;;;;;4180653;28;20112;-60
2023/07/09 02:48:01;;;;;;;6.20;3.70;;;25.70;90.30;;;;;;4182667;28;20044;-60
2023/07/09 02:50:02;;;;;;;5.45;3.60;;;25.70;90.50;;;;;;4182970;28;20053;-63
2023/07/09 02:52:04;;;;;;;7.65;3.85;;;25.60;90.80;;;;;;4184631;28;20043;-60
2023/07/09 02:54:05;;;;;;;5.68;3.70;;;25.70;90.30;;;;;;4185960;28;20040;-59
2023/07/09 02:56:06;;;;;;;4.88;3.47;;;25.70;90.50;;;;;;4182288;28;20040;-62
2023/07/09 02:58:06;;;;;;;5.35;3.47;;;25.60;90.50;;;;;;4182528;28;20458;-60
2023/07/09 03:00:08;;;;;;;5.93;4.00;;;25.60;90.40;;;;;;4184547;28;20054;-60
2023/07/09 03:02:09;;;;;;;8.63;3.85;;;25.60;91.10;;;;;;4185097;28;20380;-59
2023/07/09 03:04:10;;;;;;;6.90;4.15;;;25.60;90.80;;;;;;4186102;28;20043;-60
2023/07/09 03:06:10;;;;;;;4.90;3.60;;;25.60;90.90;;;;;;4168955;28;20492;-59
2023/07/09 03:08:11;;;;;;;4.90;3.47;;;25.60;90.80;;;;;;4181198;28;20048;-60
2023/07/09 03:10:11;;;;;;;5.85;3.50;;;25.50;90.90;;;;;;4182747;28;20045;-60
2023/07/09 03:12:12;;;;;;;6.28;3.90;;;25.50;90.90;;;;;;4183501;28;20037;-59
2023/07/09 03:14:13;;;;;;;6.55;4.20;;;25.40;91.10;;;;;;4191811;28;20115;-59
2023/07/09 03:16:14;;;;;;;6.38;4.00;;;25.40;91.20;;;;;;4177621;28;20818;-60
2023/07/09 03:18:15;;;;;;;6.05;3.80;;;25.30;91.50;;;;;;4158350;28;20089;-60
2023/07/09 03:20:16;;;;;;;6.60;4.15;;;25.30;91.40;;;;;;4177996;28;20032;-60
2023/07/09 03:22:16;;;;;;;8.07;4.22;;;25.20;91.70;;;;;;4183842;28;20112;-60
2023/07/09 03:24:18;;;;;;;7.47;4.05;;;25.20;91.60;;;;;;4184182;28;20037;-59
2023/07/09 03:26:19;;;;;;;7.47;4.00;;;25.20;91.40;;;;;;4183308;28;20029;-60
2023/07/09 03:28:19;;;;;;;7.18;4.18;;;25.20;91.50;;;;;;4182520;28;20335;-60
2023/07/09 03:30:20;;;;;;;5.20;3.65;;;25.10;91.60;;;;;;4186106;28;20115;-60
2023/07/09 03:32:20;;;;;;;5.75;3.72;;;25.10;91.60;;;;;;4182116;28;20040;-59
2023/07/09 03:34:21;;;;;;;6.95;4.57;;;25.10;91.80;;;;;;4183134;28;20052;-59
2023/07/09 03:36:22;;;;;;;5.90;3.95;;;25.10;91.50;;;;;;4185958;28;20150;-59
2023/07/09 03:38:22;;;;;;;6.07;4.13;;;25.10;91.50;;;;;;4180995;28;20033;-60
2023/07/09 03:40:23;;;;;;;7.00;4.40;;;25.10;91.50;;;;;;4183904;28;20379;-59
2023/07/09 03:42:24;;;;;;;6.50;4.38;;;25.10;91.70;;;;;;4182794;28;20108;-59
2023/07/09 03:44:25;;;;;;;5.90;4.18;;;25.10;91.90;;;;;;4180997;28;20033;-59
2023/07/09 03:46:26;;;;;;;7.85;4.43;;;25.10;92.00;;;;;;4182210;28;20054;-59
2023/07/09 03:48:27;;;;;;;6.43;4.07;;;25.10;92.00;;;;;;4175075;28;25385;-59
2023/07/09 03:50:27;;;;;;;7.10;4.78;;;25.10;91.90;;;;;;4179509;28;20060;-60
2023/07/09 03:52:28;;;;;;;4.85;3.95;;;25.10;91.80;;;;;;4184296;28;20032;-59
2023/07/09 03:54:28;;;;;;;6.45;4.22;;;25.10;91.70;;;;;;4186136;28;20036;-59
2023/07/09 03:56:29;;;;;;;6.28;4.22;;;25.10;91.70;;;;;;4165096;28;20116;-59
2023/07/09 03:58:30;;;;;;;5.22;4.00;;;25.10;91.80;;;;;;4178739;28;20044;-60
2023/07/09 04:00:31;;;;;;;6.25;4.32;;;25.10;91.90;;;;;;4177670;28;20098;-59
2023/07/09 04:02:32;;;;;;;7.07;4.80;;;25.10;91.90;;;;;;4180987;28;20094;-63
2023/07/09 04:04:32;;;;;;;8.48;4.82;;;25.10;92.20;;;;;;4178168;28;20323;-61
2023/07/09 04:06:33;;;;;;;6.25;4.13;;;25.10;92.10;;;;;;4177138;28;20070;-60
2023/07/09 04:08:34;;;;;;;5.82;4.13;;;25.10;92.30;;;;;;4180008;28;20383;-60
2023/07/09 04:10:34;;;;;;;6.03;4.10;;;25.10;92.60;;;;;;4176534;28;20598;-60
2023/07/09 04:12:36;;;;;;;5.95;4.05;;;25.00;92.40;;;;;;4183978;28;20051;-59
2023/07/09 04:14:37;;;;;;;6.40;4.20;;;25.00;92.60;;;;;;4186255;28;20029;-60
2023/07/09 04:16:37;;;;;;;6.20;4.35;;;24.90;92.60;;;;;;4182045;28;20812;-60
2023/07/09 04:18:38;;;;;;;6.65;4.65;;;24.90;92.80;;;;;;4171614;28;20037;-59
2023/07/09 04:20:39;;;;;;;11.13;4.82;;;25.00;92.80;;;;;;4182749;28;20032;-62
2023/07/09 04:22:39;;;;;;;6.82;4.45;;;24.90;92.70;;;;;;4181921;28;20036;-60
2023/07/09 04:24:40;;;;;;;8.15;5.03;;;24.90;92.90;;;;;;4188109;28;20026;-60
2023/07/09 04:26:40;;;;;;;7.03;4.68;;;24.90;93.00;;;;;;4183444;28;20407;-60
2023/07/09 04:28:41;;;;;;;8.27;4.95;;;24.90;92.90;;;;;;4188719;28;20025;-59
2023/07/09 04:30:49;;;;;;;10.88;5.47;;;24.80;93.00;;;;;;4184989;28;20025;-62
2023/07/09 04:32:50;;;;;;;9.68;5.63;;;24.70;92.90;;;;;;4185716;28;20181;-62
2023/07/09 04:34:50;;;;;;;8.35;5.10;;;24.70;92.80;;;;;;4184317;28;20044;-62
2023/07/09 04:36:51;;;;;;;8.15;4.78;;;24.70;93.40;;;;;;4180699;28;20029;-62
2023/07/09 04:38:52;;;;;;;7.93;4.95;;;24.70;93.20;;;;;;4183962;28;20253;-62
2023/07/09 04:40:52;;;;;;;9.18;5.25;;;24.60;93.20;;;;;;4182575;28;20040;-62
2023/07/09 04:42:53;;;;;;;8.13;4.82;;;24.60;93.40;;;;;;4183507;28;20492;-62
2023/07/09 04:44:53;;;;;;;9.05;4.80;;;24.60;93.20;;;;;;4184452;28;20360;-62
2023/07/09 04:46:54;;;;;;;9.98;4.45;;;24.60;93.60;;;;;;4190889;28;20447;-62
2023/07/09 04:48:55;;;;;;;8.63;4.90;;;24.60;93.60;;;;;;4185359;28;20032;-62
2023/07/09 04:50:56;;;;;;;8.98;5.20;;;24.50;93.50;;;;;;4188354;28;20032;-62
2023/07/09 04:52:56;;;;;;;6.78;4.55;;;24.50;93.50;;;;;;4190554;28;20105;-61
2023/07/09 04:54:57;;;;;;;9.18;5.40;;;24.50;93.60;;;;;;4185656;28;20029;-62
2023/07/09 04:56:58;;;;;;;7.47;4.70;;;24.50;93.60;;;;;;4167418;28;20037;-62
2023/07/09 04:58:59;;;;;;;9.27;5.35;;;24.50;93.70;;;;;;4184065;28;20079;-62
2023/07/09 05:01:00;;;;;;;9.88;4.80;;;24.50;93.70;;;;;;4180388;28;20423;-62
2023/07/09 05:03:00;;;;;;;8.23;5.32;;;24.50;93.80;;;;;;4182508;28;20053;-62
2023/07/09 05:05:01;;;;;;;8.95;5.07;;;24.50;93.90;;;;;;4188289;28;20071;-62
2023/07/09 05:07:01;;;;;;;9.38;5.05;;;24.50;94.10;;;;;;4185272;28;20068;-62
2023/07/09 05:09:02;;;;;;;9.32;4.88;;;24.50;94.00;;;;;;4183720;28;20516;-62
2023/07/09 05:11:03;;;;;;;8.77;5.75;;;24.50;94.20;;;;;;4181662;28;20041;-62
2023/07/09 05:13:03;;;;;;;9.73;5.53;;;24.50;94.30;;;;;;4188228;28;20036;-62
2023/07/09 05:15:04;;;;;;;8.25;4.78;;;24.50;94.30;;;;;;4192226;28;20020;-63
2023/07/09 05:17:06;;;;;;;8.60;5.25;;;24.50;94.30;;;;;;4188949;28;20040;-62
2023/07/09 05:19:08;;;;;;;10.00;5.43;;;24.50;94.50;;;;;;4180963;28;20158;-62
2023/07/09 05:21:08;;;;;;;8.85;4.82;;;24.60;94.90;;;;;;4192484;28;20044;-62
2023/07/09 05:23:10;;;;;;;7.00;4.57;;;24.60;94.90;;;;;;4175981;28;20029;-62
2023/07/09 05:25:11;;;;;;;9.05;4.70;;;24.60;94.60;;;;;;4186072;28;20058;-65
2023/07/09 05:27:12;;;;;;;9.25;5.45;;;24.70;94.50;;;;;;4184938;28;20028;-63
2023/07/09 05:29:13;;;;;;;8.52;4.60;;;24.60;94.60;;;;;;4179585;28;20473;-62
2023/07/09 05:31:14;;;;;;;8.98;5.20;;;24.70;94.70;;;;;;4177913;28;20033;-62
2023/07/09 05:33:20;;;;;;;7.72;4.18;;;24.70;94.70;;;;;;4150172;28;20534;-62
2023/07/09 05:35:22;;;;;;;7.13;4.57;;;24.70;94.80;;;;;;4185552;28;20147;-62
2023/07/09 05:37:22;;;;;;;8.80;4.65;;;24.80;94.80;;;;;;4159112;28;20057;-61
2023/07/09 05:39:23;;;;;;;7.40;5.05;;;24.90;94.70;;;;;;4184452;28;20123;-62
2023/07/09 05:41:23;;;;;;;8.35;4.85;;;24.90;94.80;;;;;;4185336;28;20044;-62
2023/07/09 05:43:24;;;;;;;8.40;4.88;;;24.90;94.90;;;;;;4159694;28;20052;-62
2023/07/09 05:45:25;;;;;;;8.63;4.25;;;25.00;94.60;;;;;;4177015;28;20490;-62
2023/07/09 05:47:26;;;;;;;7.82;4.55;;;25.00;94.80;;;;;;4175623;28;20411;-62
2023/07/09 05:49:27;;;;;;;9.00;4.50;;;25.10;94.60;;;;;;4183316;28;20340;-62
2023/07/09 05:51:28;;;;;;;8.80;5.20;;;25.10;94.50;;;;;;4185823;28;20037;-62
2023/07/09 05:53:29;;;;;;;7.13;4.50;;;25.20;94.50;;;;;;4182137;28;20036;-62
2023/07/09 05:55:29;;;;;;;10.23;4.85;;;25.20;94.30;;;;;;4178603;28;20512;-62
2023/07/09 05:57:30;;;;;;;8.18;4.13;;;25.30;94.40;;;;;;4179728;28;20029;-62
2023/07/09 05:59:31;;;;;;;8.75;4.68;;;25.40;94.60;;;;;;4184764;28;20024;-62
2023/07/09 06:01:32;;;;;;;7.93;4.40;;;25.70;94.50;;;;;;4172507;28;20071;-62
2023/07/09 06:03:33;;;;;;;6.38;4.53;;;25.90;94.00;;;;;;4166822;28;20087;-67
2023/07/09 06:05:34;;;;;;;8.07;4.82;;;26.20;93.40;;;;;;4169494;28;20516;-63
2023/07/09 06:07:35;;;;;;;6.45;4.15;;;26.50;93.10;;;;;;4171583;28;20101;-62
2023/07/09 06:09:36;;;;;;;9.05;4.70;;;26.70;92.10;;;;;;4174523;28;20496;-62
2023/07/09 06:11:36;;;;;;;6.65;4.45;;;27.00;92.00;;;;;;4179124;28;20041;-63
2023/07/09 06:13:37;;;;;;;6.70;4.20;;;27.20;91.30;;;;;;4181071;28;20037;-62
2023/07/09 06:15:38;;;;;;;12.05;4.78;;;27.50;91.30;;;;;;4187357;28;20164;-63
2023/07/09 06:17:38;;;;;;;6.97;4.47;;;27.70;91.00;;;;;;4179717;28;20036;-63
2023/07/09 06:19:39;;;;;;;6.75;4.43;;;28.00;90.50;;;;;;4179922;28;20135;-63
2023/07/09 06:21:40;;;;;;;6.45;4.20;;;28.30;90.30;;;;;;4186257;28;20515;-63
2023/07/09 06:23:40;;;;;;;9.27;4.63;;;28.60;89.20;;;;;;4182408;28;20032;-63
2023/07/09 06:25:42;;;;;;;9.50;4.75;;;28.80;88.10;;;;;;4183813;28;20067;-63
2023/07/09 06:27:43;;;;;;;5.97;4.10;;;29.00;87.20;;;;;;4178958;28;20033;-63
2023/07/09 06:29:44;;;;;;;7.53;4.47;;;29.10;86.90;;;;;;4185458;28;20032;-63
2023/07/09 06:31:45;;;;;;;5.45;3.90;;;29.30;86.00;;;;;;4181509;28;20045;-63
2023/07/09 06:33:45;;;;;;;5.97;3.88;;;29.50;85.80;;;;;;4174812;28;20092;-63
2023/07/09 06:36:01;;;;;;;6.88;4.65;;;29.70;85.00;;;;;;4179798;28;20072;-63
2023/07/09 06:38:02;;;;;;;8.85;4.68;;;29.80;84.10;;;;;;4181364;28;20029;-63
2023/07/09 06:40:02;;;;;;;7.78;4.63;;;29.70;84.10;;;;;;4175124;28;20047;-67
2023/07/09 06:42:03;;;;;;;7.18;4.32;;;29.70;83.40;;;;;;4176723;28;20411;-64
2023/07/09 06:44:08;;;;;;;10.38;4.78;;;29.80;83.20;;;;;;4178982;28;20056;-63
2023/07/09 06:46:11;;;;;;;7.22;4.13;;;29.70;83.30;;;;;;4175468;28;20032;-63
2023/07/09 06:48:12;;;;;;;5.95;4.22;;;29.80;83.20;;;;;;4179072;28;20056;-63
2023/07/09 06:50:13;;;;;;;7.85;4.68;;;29.60;82.80;;;;;;4175893;28;20052;-63
2023/07/09 06:52:13;;;;;;;6.57;4.20;;;29.70;83.00;;;;;;4171311;28;20419;-63
2023/07/09 06:54:15;;;;;;;6.50;4.38;;;29.70;82.80;;;;;;4187300;28;20086;-64
2023/07/09 06:56:16;;;;;;;9.57;4.47;;;29.80;83.40;;;;;;4162481;28;20079;-63
2023/07/09 06:58:17;;;;;;;6.30;4.10;;;29.80;82.70;;;;;;4180774;28;20029;-64
2023/07/09 07:00:19;;;;;;;7.95;4.28;;;29.90;83.20;;;;;;4180109;28;20134;-68
2023/07/09 07:02:19;;;;;;;6.43;3.90;;;29.90;82.90;;;;;;4186621;28;20120;-63
2023/07/09 07:04:20;;;;;;;6.90;4.10;;;29.90;82.40;;;;;;4171083;28;20526;-64
2023/07/09 07:06:20;;;;;;;7.07;4.45;;;29.90;82.00;;;;;;4179032;28;20467;-64
2023/07/09 07:08:23;;;;;;;6.65;4.32;;;29.90;82.20;;;;;;4183336;28;20045;-64
2023/07/09 07:10:26;;;;;;;5.65;3.83;;;30.00;83.10;;;;;;4190444;28;20119;-63
2023/07/09 07:12:29;;;;;;;7.18;3.70;;;30.00;82.50;;;;;;4170585;28;20034;-63
2023/07/09 07:14:30;;;;;;;;;;;30.10;83.00;;;;;;4180883;28;20147;-63
2023/07/09 07:16:30;;;;;;;7.38;4.30;;;30.20;82.00;;;;;;4183291;28;20363;-63
2023/07/09 07:18:31;;;;;;;5.40;3.75;;;30.20;82.00;;;;;;4180738;28;20029;-63
2023/07/09 07:20:32;;;;;;;6.97;4.32;;;30.20;81.50;;;;;;4181454;28;20094;-63
2023/07/09 07:22:32;;;;;;;6.05;4.25;;;30.20;82.80;;;;;;4189399;28;20053;-63
2023/07/09 07:24:33;;;;;;;7.60;4.05;;;30.30;81.70;;;;;;4184579;28;20553;-65
2023/07/09 07:26:34;;;;;;;6.15;3.95;;;30.40;81.30;;;;;;4182181;28;20028;-64
2023/07/09 07:28:37;;;;;;;5.47;3.45;;;30.40;81.40;;;;;;4184552;28;20029;-63
2023/07/09 07:30:38;;;;;;;6.47;4.05;;;30.50;81.40;;;;;;4182856;28;20467;-63
2023/07/09 07:32:44;;;;;;;6.00;3.83;;;30.50;80.60;;;;;;4185243;28;20028;-63
2023/07/09 07:34:45;;;;;;;5.95;3.97;;;30.60;80.50;;;;;;4180778;28;20065;-63
2023/07/09 07:36:47;;;;;;;7.63;4.35;;;30.60;81.40;;;;;;4187060;28;20027;-63
2023/07/09 07:38:48;;;;;;;8.00;4.45;;;30.70;82.10;;;;;;4178695;28;20053;-63
2023/07/09 07:40:48;;;;;;;6.20;3.88;;;30.70;81.10;;;;;;4176408;28;20388;-63
2023/07/09 07:42:49;;;;;;;5.50;3.88;;;30.80;81.60;;;;;;4177400;28;20045;-63
2023/07/09 07:44:49;;;;;;;4.20;3.42;;;30.90;82.00;;;;;;4175870;28;20128;-63
2023/07/09 07:46:50;;;;;;;7.05;4.10;;;30.90;81.10;;;;;;4177203;28;20384;-62
2023/07/09 07:48:51;;;;;;;7.97;3.90;;;30.90;80.20;;;;;;4178946;28;20028;-67
2023/07/09 07:51:01;;;;;;;6.38;3.70;;;31.00;80.70;;;;;;4185575;28;20033;-63
2023/07/09 07:53:02;;;;;;;6.35;3.78;;;31.10;80.60;;;;;;4181716;28;20039;-63
2023/07/09 07:55:08;;;;;;;6.40;3.50;;;31.10;79.70;;;;;;4181213;28;20112;-64
2023/07/09 07:57:10;;;;;;;6.00;3.88;;;31.20;80.10;;;;;;4190723;28;20111;-63
2023/07/09 07:59:11;;;;;;;6.28;4.03;;;31.20;80.20;;;;;;4184910;28;20037;-63
2023/07/09 08:01:11;;;;;;;5.88;4.00;;;31.30;80.00;;;;;;4180064;28;20118;-63
2023/07/09 08:03:12;;;;;;;5.90;4.05;;;31.40;79.00;;;;;;4171710;28;20052;-63
2023/07/09 08:05:12;;;;;;;4.88;3.28;;;31.40;79.50;;;;;;4181969;28;20044;-63
2023/07/09 08:07:13;;;;;;;5.95;3.33;;;31.40;81.00;;;;;;4183250;28;20036;-63
2023/07/09 08:09:15;;;;;;;5.75;3.47;;;31.50;78.80;;;;;;4180975;28;20040;-63
2023/07/09 08:11:16;;;;;;;4.93;3.65;;;31.50;79.10;;;;;;4188289;28;20040;-63
2023/07/09 08:13:18;;;;;;;6.07;3.63;;;31.60;79.70;;;;;;4182745;28;20034;-63
2023/07/09 08:15:19;;;;;;;4.15;3.25;;;31.70;79.20;;;;;;4179567;28;20111;-63
2023/07/09 08:17:19;;;;;;;5.30;3.70;;;31.70;79.10;;;;;;4179203;28;20032;-63
2023/07/09 08:19:20;;;;;;;5.47;3.10;;;31.80;79.40;;;;;;4180290;28;20396;-63
2023/07/09 08:21:21;;;;;;;4.45;3.63;;;31.80;78.30;;;;;;4177962;28;20540;-63
2023/07/09 08:23:21;;;;;;;5.20;3.50;;;31.90;78.30;;;;;;4184027;28;20032;-67
2023/07/09 08:25:22;;;;;;;4.32;3.50;;;31.90;78.20;;;;;;4189353;28;20433;-64
2023/07/09 08:27:23;;;;;;;7.15;3.78;;;31.90;78.80;;;;;;4185112;28;20431;-64
2023/07/09 08:29:23;;;;;;;5.63;3.67;;;32.00;78.50;;;;;;4181231;28;20029;-63
2023/07/09 08:31:24;;;;;;;5.95;3.80;;;32.10;78.00;;;;;;4162407;28;20037;-63
2023/07/09 08:33:25;;;;;;;13.85;4.18;;;32.20;76.50;;;;;;4177312;28;20037;-63
2023/07/09 08:35:26;;;;;;;7.40;3.58;;;32.20;77.00;;;;;;4183146;28;20053;-63
2023/07/09 08:37:26;;;;;;;8.80;4.20;;;32.30;78.20;;;;;;4185227;28;20441;-63
2023/07/09 08:39:27;;;;;;;5.40;3.40;;;32.30;76.30;;;;;;4180088;28;20025;-63
2023/07/09 08:41:42;;;;;;;4.70;3.40;;;32.30;77.00;;;;;;4178968;28;20040;-63
2023/07/09 08:44:07;;;;;;;5.43;3.60;;;32.40;77.50;;;;;;4178757;28;20043;-63
2023/07/09 08:46:17;;;;;;;8.30;3.78;;;32.40;76.40;;;;;;4173180;28;20037;-63
2023/07/09 08:48:38;;;;;;;4.57;3.08;;;32.50;77.30;;;;;;4174867;28;20029;-63
2023/07/09 08:50:41;;;;;;;6.13;3.58;;;32.50;75.80;;;;;;4145343;28;20030;-63
2023/07/09 08:52:44;;;;;;;5.90;3.10;;;32.60;75.30;;;;;;4157146;28;20589;-63
2023/07/09 08:54:47;;;;;;;7.43;3.70;;;32.70;75.80;;;;;;4159798;28;20087;-63
2023/07/09 08:56:49;;;;;;;7.57;4.00;;;32.80;75.40;;;;;;4158893;28;20083;-63
2023/07/09 08:58:52;;;;;;;6.77;3.77;;;32.70;74.20;;;;;;4157263;28;20034;-63
2023/07/09 09:01:00;;;;;;;5.72;3.45;;;32.80;74.40;;;;;;4158899;28;20507;-64
2023/07/09 09:03:08;;;;;;;6.68;3.75;;;32.80;74.90;;;;;;4158387;28;20037;-63
2023/07/09 09:05:12;;;;;;;5.93;3.42;;;32.90;73.90;;;;;;4159546;28;20481;-65
2023/07/09 09:07:41;;;;;;;5.05;3.50;;;32.90;73.70;;;;;;4158445;28;20042;-64
2023/07/09 09:10:11;;;;;;;4.65;3.15;;;33.00;75.00;;;;;;4156479;28;20392;-63
2023/07/09 09:12:17;;;;;;;4.43;2.88;;;33.00;73.90;;;;;;4148417;28;20095;-63
2023/07/09 09:14:38;;;;;;;5.53;3.42;;;33.10;74.90;;;;;;4161581;28;20044;-63
2023/07/09 09:16:39;;;;;;;6.30;2.88;;;33.20;75.30;;;;;;4160801;28;20068;-63
2023/07/09 09:18:45;;;;;;;4.38;3.17;;;33.30;74.60;;;;;;4162801;28;20044;-63
2023/07/09 09:20:56;;;;;;;6.57;3.83;;;33.40;72.20;;;;;;4166229;28;20331;-63
2023/07/09 09:23:12;;;;;;;5.47;3.30;;;33.40;71.50;;;;;;4160957;28;20041;-63
2023/07/09 09:25:21;;;;;;;4.60;3.30;;;33.40;70.10;;;;;;4161856;28;20088;-64
2023/07/09 09:27:21;;;;;;;5.93;3.20;;;33.50;70.40;;;;;;4163532;28;20044;-63
2023/07/09 09:29:24;;;;;;;6.78;3.72;;;33.50;70.60;;;;;;4160525;28;20034;-63
2023/07/09 09:31:27;;;;;;;5.65;3.35;;;33.60;70.60;;;;;;4164256;28;20033;-63
2023/07/09 09:33:44;;;;;;;7.88;3.63;;;33.60;69.70;;;;;;4161146;28;20041;-63
2023/07/09 09:35:47;;;;;;;4.93;3.30;;;33.70;71.50;;;;;;4161611;28;20041;-63
2023/07/09 09:37:55;;;;;;;6.88;3.50;;;33.80;69.50;;;;;;4157801;28;20112;-63
2023/07/09 09:39:58;;;;;;;5.65;3.10;;;33.80;68.80;;;;;;4159212;28;20491;-64
2023/07/09 09:41:58;;;;;;;5.32;3.50;;;33.90;70.40;;;;;;4157360;28;20033;-64
2023/07/09 09:43:59;;;;;;;6.93;3.28;;;34.00;68.30;;;;;;4159341;28;20554;-63
2023/07/09 09:46:05;;;;;;;5.78;3.17;;;34.00;68.20;;;;;;4162687;28;20476;-63
2023/07/09 09:48:29;;;;;;;6.38;3.55;;;34.10;67.00;;;;;;4159728;28;20029;-63
2023/07/09 09:50:32;;;;;;;4.60;3.08;;;34.10;67.30;;;;;;4161095;28;20034;-63
2023/07/09 09:52:34;;;;;;;7.47;2.70;;;34.10;68.10;;;;;;4162411;28;20047;-63
2023/07/09 09:54:35;;;;;;;5.47;3.33;;;34.10;67.40;;;;;;4156509;28;20084;-64
2023/07/09 09:56:37;;;;;;;5.00;3.30;;;34.20;65.60;;;;;;4164278;28;20115;-63
2023/07/09 09:58:40;;;;;;;6.20;3.47;;;34.20;66.50;;;;;;4160910;28;20227;-63
2023/07/09 10:00:48;;;;;;;6.13;3.40;;;34.30;66.20;;;;;;4161490;28;20041;-63
2023/07/09 10:02:48;;;;;;;6.13;3.60;;;34.30;66.00;;;;;;4163813;28;20378;-63
2023/07/09 10:04:50;;;;;;;5.30;3.63;;;34.40;66.50;;;;;;4167816;28;20039;-63
2023/07/09 10:06:56;;;;;;;10.27;3.30;;;34.40;68.40;;;;;;4159283;28;20038;-63
2023/07/09 10:09:15;;;;;;;7.43;3.17;;;34.50;66.80;;;;;;4160439;28;20061;-63
2023/07/09 10:11:24;;;;;;;7.63;3.55;;;34.50;66.90;;;;;;4165653;28;20038;-63
2023/07/09 10:13:31;;;;;;;5.00;3.30;;;34.60;65.70;;;;;;4161915;28;20033;-64
2023/07/09 10:16:06;;;;;;;4.45;2.67;;;34.60;65.80;;;;;;4161085;28;20034;-63
2023/07/09 10:19:09;;;;;;;4.18;3.13;;;34.70;65.50;;;;;;4163048;28;20087;-64
2023/07/09 10:21:13;;;;;;;3.72;2.80;;;34.70;66.30;;;;;;4146731;28;20581;-63
2023/07/09 10:23:27;;;;;;;3.63;3.20;;;34.90;66.20;;;;;;4150749;28;20116;-63
2023/07/09 10:25:48;;;;;;;6.28;3.20;;;34.90;65.80;;;;;;4168246;28;20044;-63
2023/07/09 10:28:20;;;;;;;5.78;3.42;;;35.00;65.00;;;;;;4162440;28;20044;-63
2023/07/09 10:30:41;;;;;;;5.70;3.10;;;35.00;65.90;;;;;;4160537;28;20033;-63
2023/07/09 10:33:07;;;;;;;4.68;3.15;;;35.00;63.60;;;;;;4160236;28;20022;-63
2023/07/09 10:35:26;;;;;;;4.63;3.20;;;35.10;63.70;;;;;;4175832;28;20048;-64
2023/07/09 10:37:55;;;;;;;3.85;3.03;;;35.10;64.20;;;;;;4180607;28;20055;-64
2023/07/09 10:39:58;;;;;;;3.13;2.72;;;35.20;62.90;;;;;;4179256;28;20502;-64
2023/07/09 10:42:01;;;;;;;5.70;3.65;;;35.30;65.70;;;;;;4179940;28;20087;-64
2023/07/09 10:44:25;;;;;;;5.38;3.20;;;35.30;64.90;;;;;;4147582;28;20052;-63